sensor_id;sensor_type;location;lat;lon;timestamp;P1;durP1;ratioP1;P2;durP2;ratioP2
5391;SDS011;2719;53.624;9.786;2023-08-01T00:01:10;1.20;;;0.70;;
5391;SDS011;2719;53.624;9.786;2023-08-01T00:03:38;1.20;;;0.63;;
5391;SDS011;2719;53.624;9.786;2023-08-01T00:06:04;1.30;;;0.73;;
5391;SDS011;2719;53.624;9.786;2023-08-01T00:08:31;2.00;;;0.70;;
5391;SDS011;2719;53.624;9.786;2023-08-01T00:10:59;1.10;;;0.60;;
5391;SDS011;2719;53.624;9.786;2023-08-01T00:13:25;2.67;;;0.70;;
5391;SDS011;2719;53.624;9.786;2023-08-01T00:15:52;1.60;;;0.50;;
5391;SDS011;2719;53.624;9.786;2023-08-01T00:18:19;1.00;;;0.50;;
5391;SDS011;2719;53.624;9.786;2023-08-01T00:20:45;1.20;;;0.50;;
5391;SDS011;2719;53.624;9.786;2023-08-01T00:23:12;1.00;;;0.50;;
5391;SDS011;2719;53.624;9.786;2023-08-01T00:25:39;1.10;;;0.60;;
5391;SDS011;2719;53.624;9.786;2023-08-01T00:28:07;0.93;;;0.50;;
5391;SDS011;2719;53.624;9.786;2023-08-01T00:30:34;1.00;;;0.40;;
5391;SDS011;2719;53.624;9.786;2023-08-01T00:33:00;1.07;;;0.60;;
5391;SDS011;2719;53.624;9.786;2023-08-01T00:35:27;3.43;;;0.50;;
5391;SDS011;2719;53.624;9.786;2023-08-01T00:37:54;1.77;;;0.60;;
5391;SDS011;2719;53.624;9.786;2023-08-01T00:40:20;2.70;;;0.60;;
5391;SDS011;2719;53.624;9.786;2023-08-01T00:42:47;1.00;;;0.50;;
5391;SDS011;2719;53.624;9.786;2023-08-01T00:45:21;1.00;;;0.43;;
5391;SDS011;2719;53.624;9.786;2023-08-01T00:47:49;1.93;;;0.50;;
5391;SDS011;2719;53.624;9.786;2023-08-01T00:50:16;4.03;;;0.60;;
5391;SDS011;2719;53.624;9.786;2023-08-01T00:52:45;1.30;;;0.53;;
5391;SDS011;2719;53.624;9.786;2023-08-01T00:55:12;1.10;;;0.70;;
5391;SDS011;2719;53.624;9.786;2023-08-01T00:57:40;1.60;;;0.60;;
5391;SDS011;2719;53.624;9.786;2023-08-01T01:00:07;2.33;;;0.63;;
5391;SDS011;2719;53.624;9.786;2023-08-01T01:02:36;1.20;;;0.60;;
5391;SDS011;2719;53.624;9.786;2023-08-01T01:05:03;1.33;;;0.50;;
5391;SDS011;2719;53.624;9.786;2023-08-01T01:07:31;4.23;;;0.77;;
5391;SDS011;2719;53.624;9.786;2023-08-01T01:09:58;1.47;;;0.60;;
5391;SDS011;2719;53.624;9.786;2023-08-01T01:12:25;2.60;;;0.70;;
5391;SDS011;2719;53.624;9.786;2023-08-01T01:14:51;0.97;;;0.57;;
5391;SDS011;2719;53.624;9.786;2023-08-01T01:17:18;1.73;;;0.50;;
5391;SDS011;2719;53.624;9.786;2023-08-01T01:19:46;2.23;;;0.73;;
5391;SDS011;2719;53.624;9.786;2023-08-01T01:22:14;1.93;;;0.80;;
5391;SDS011;2719;53.624;9.786;2023-08-01T01:24:42;1.10;;;0.70;;
5391;SDS011;2719;53.624;9.786;2023-08-01T01:27:09;1.87;;;0.83;;
5391;SDS011;2719;53.624;9.786;2023-08-01T01:29:37;1.60;;;0.73;;
5391;SDS011;2719;53.624;9.786;2023-08-01T01:32:06;1.20;;;0.60;;
5391;SDS011;2719;53.624;9.786;2023-08-01T01:34:33;2.60;;;0.87;;
5391;SDS011;2719;53.624;9.786;2023-08-01T01:37:00;1.23;;;0.70;;
5391;SDS011;2719;53.624;9.786;2023-08-01T01:39:29;2.80;;;1.20;;
5391;SDS011;2719;53.624;9.786;2023-08-01T01:41:56;2.70;;;1.20;;
5391;SDS011;2719;53.624;9.786;2023-08-01T01:44:22;1.70;;;0.90;;
5391;SDS011;2719;53.624;9.786;2023-08-01T01:46:49;3.50;;;1.13;;
5391;SDS011;2719;53.624;9.786;2023-08-01T01:49:16;1.90;;;1.30;;
5391;SDS011;2719;53.624;9.786;2023-08-01T01:51:42;1.97;;;1.30;;
5391;SDS011;2719;53.624;9.786;2023-08-01T01:54:09;3.30;;;1.70;;
5391;SDS011;2719;53.624;9.786;2023-08-01T01:56:37;7.50;;;1.63;;
5391;SDS011;2719;53.624;9.786;2023-08-01T01:59:03;2.97;;;1.80;;
5391;SDS011;2719;53.624;9.786;2023-08-01T02:01:30;2.80;;;1.80;;
5391;SDS011;2719;53.624;9.786;2023-08-01T02:03:57;4.57;;;2.40;;
5391;SDS011;2719;53.624;9.786;2023-08-01T02:06:23;5.03;;;2.70;;
5391;SDS011;2719;53.624;9.786;2023-08-01T02:08:50;8.23;;;3.10;;
5391;SDS011;2719;53.624;9.786;2023-08-01T02:11:17;2.37;;;1.83;;
5391;SDS011;2719;53.624;9.786;2023-08-01T02:13:44;3.53;;;2.70;;
5391;SDS011;2719;53.624;9.786;2023-08-01T02:16:11;5.23;;;2.67;;
5391;SDS011;2719;53.624;9.786;2023-08-01T02:18:38;4.83;;;3.17;;
5391;SDS011;2719;53.624;9.786;2023-08-01T02:21:05;6.63;;;3.27;;
5391;SDS011;2719;53.624;9.786;2023-08-01T02:23:31;5.27;;;3.63;;
5391;SDS011;2719;53.624;9.786;2023-08-01T02:26:01;5.73;;;3.30;;
5391;SDS011;2719;53.624;9.786;2023-08-01T02:28:28;4.00;;;3.00;;
5391;SDS011;2719;53.624;9.786;2023-08-01T02:30:57;3.83;;;3.37;;
5391;SDS011;2719;53.624;9.786;2023-08-01T02:33:23;6.83;;;4.50;;
5391;SDS011;2719;53.624;9.786;2023-08-01T02:35:50;7.63;;;3.70;;
5391;SDS011;2719;53.624;9.786;2023-08-01T02:38:17;6.97;;;4.77;;
5391;SDS011;2719;53.624;9.786;2023-08-01T02:40:43;10.60;;;5.10;;
5391;SDS011;2719;53.624;9.786;2023-08-01T02:43:10;6.80;;;4.37;;
5391;SDS011;2719;53.624;9.786;2023-08-01T02:45:36;7.20;;;4.93;;
5391;SDS011;2719;53.624;9.786;2023-08-01T02:48:05;5.87;;;4.70;;
5391;SDS011;2719;53.624;9.786;2023-08-01T02:50:31;6.67;;;4.60;;
5391;SDS011;2719;53.624;9.786;2023-08-01T02:52:58;9.47;;;5.27;;
5391;SDS011;2719;53.624;9.786;2023-08-01T02:55:25;10.93;;;5.30;;
5391;SDS011;2719;53.624;9.786;2023-08-01T02:57:51;7.30;;;5.10;;
5391;SDS011;2719;53.624;9.786;2023-08-01T03:00:18;6.30;;;4.77;;
5391;SDS011;2719;53.624;9.786;2023-08-01T03:02:44;6.00;;;4.60;;
5391;SDS011;2719;53.624;9.786;2023-08-01T03:05:12;9.20;;;5.90;;
5391;SDS011;2719;53.624;9.786;2023-08-01T03:07:39;12.60;;;5.70;;
5391;SDS011;2719;53.624;9.786;2023-08-01T03:10:06;10.43;;;6.03;;
5391;SDS011;2719;53.624;9.786;2023-08-01T03:12:33;7.47;;;4.90;;
5391;SDS011;2719;53.624;9.786;2023-08-01T03:14:59;9.77;;;5.97;;
5391;SDS011;2719;53.624;9.786;2023-08-01T03:17:26;11.27;;;6.00;;
5391;SDS011;2719;53.624;9.786;2023-08-01T03:19:52;8.40;;;6.07;;
5391;SDS011;2719;53.624;9.786;2023-08-01T03:22:20;9.20;;;6.07;;
5391;SDS011;2719;53.624;9.786;2023-08-01T03:24:48;13.13;;;5.80;;
5391;SDS011;2719;53.624;9.786;2023-08-01T03:27:14;11.90;;;7.00;;
5391;SDS011;2719;53.624;9.786;2023-08-01T03:29:41;10.10;;;5.37;;
5391;SDS011;2719;53.624;9.786;2023-08-01T03:32:07;14.33;;;5.47;;
5391;SDS011;2719;53.624;9.786;2023-08-01T03:34:34;8.30;;;5.93;;
5391;SDS011;2719;53.624;9.786;2023-08-01T03:37:01;9.30;;;6.57;;
5391;SDS011;2719;53.624;9.786;2023-08-01T03:39:30;8.03;;;5.60;;
5391;SDS011;2719;53.624;9.786;2023-08-01T03:41:56;15.90;;;6.20;;
5391;SDS011;2719;53.624;9.786;2023-08-01T03:44:23;8.30;;;6.23;;
5391;SDS011;2719;53.624;9.786;2023-08-01T03:46:50;11.43;;;7.43;;
5391;SDS011;2719;53.624;9.786;2023-08-01T03:49:16;10.97;;;6.77;;
5391;SDS011;2719;53.624;9.786;2023-08-01T03:51:43;12.03;;;7.20;;
5391;SDS011;2719;53.624;9.786;2023-08-01T03:54:09;15.90;;;6.40;;
5391;SDS011;2719;53.624;9.786;2023-08-01T03:56:37;8.80;;;6.57;;
5391;SDS011;2719;53.624;9.786;2023-08-01T03:59:07;10.77;;;6.70;;
5391;SDS011;2719;53.624;9.786;2023-08-01T04:01:34;8.43;;;6.30;;
5391;SDS011;2719;53.624;9.786;2023-08-01T04:04:01;14.70;;;6.97;;
5391;SDS011;2719;53.624;9.786;2023-08-01T04:06:27;7.00;;;5.63;;
5391;SDS011;2719;53.624;9.786;2023-08-01T04:08:54;9.70;;;6.60;;
5391;SDS011;2719;53.624;9.786;2023-08-01T04:11:21;10.83;;;6.17;;
5391;SDS011;2719;53.624;9.786;2023-08-01T04:13:49;14.40;;;7.30;;
5391;SDS011;2719;53.624;9.786;2023-08-01T04:16:16;11.33;;;6.10;;
5391;SDS011;2719;53.624;9.786;2023-08-01T04:18:43;10.97;;;6.97;;
5391;SDS011;2719;53.624;9.786;2023-08-01T04:21:09;13.60;;;7.07;;
5391;SDS011;2719;53.624;9.786;2023-08-01T04:23:37;9.70;;;6.07;;
5391;SDS011;2719;53.624;9.786;2023-08-01T04:26:04;16.30;;;6.57;;
5391;SDS011;2719;53.624;9.786;2023-08-01T04:28:32;8.50;;;6.53;;
5391;SDS011;2719;53.624;9.786;2023-08-01T04:30:59;9.30;;;6.87;;
5391;SDS011;2719;53.624;9.786;2023-08-01T04:33:26;15.33;;;6.50;;
5391;SDS011;2719;53.624;9.786;2023-08-01T04:35:53;7.60;;;5.73;;
5391;SDS011;2719;53.624;9.786;2023-08-01T04:38:20;11.93;;;7.17;;
5391;SDS011;2719;53.624;9.786;2023-08-01T04:40:46;11.73;;;6.10;;
5391;SDS011;2719;53.624;9.786;2023-08-01T04:43:13;9.87;;;6.50;;
5391;SDS011;2719;53.624;9.786;2023-08-01T04:45:40;15.70;;;7.70;;
5391;SDS011;2719;53.624;9.786;2023-08-01T04:48:08;9.37;;;6.70;;
5391;SDS011;2719;53.624;9.786;2023-08-01T04:50:34;16.77;;;6.60;;
5391;SDS011;2719;53.624;9.786;2023-08-01T04:53:01;8.10;;;5.80;;
5391;SDS011;2719;53.624;9.786;2023-08-01T04:55:28;11.20;;;6.77;;
5391;SDS011;2719;53.624;9.786;2023-08-01T04:57:55;20.93;;;6.80;;
5391;SDS011;2719;53.624;9.786;2023-08-01T05:00:22;10.80;;;7.47;;
5391;SDS011;2719;53.624;9.786;2023-08-01T05:02:48;9.70;;;7.13;;
5391;SDS011;2719;53.624;9.786;2023-08-01T05:05:16;10.67;;;6.60;;
5391;SDS011;2719;53.624;9.786;2023-08-01T05:07:43;16.00;;;6.27;;
5391;SDS011;2719;53.624;9.786;2023-08-01T05:10:10;17.47;;;5.80;;
5391;SDS011;2719;53.624;9.786;2023-08-01T05:12:36;9.93;;;5.67;;
5391;SDS011;2719;53.624;9.786;2023-08-01T05:15:03;9.60;;;6.20;;
5391;SDS011;2719;53.624;9.786;2023-08-01T05:17:31;10.87;;;5.63;;
5391;SDS011;2719;53.624;9.786;2023-08-01T05:19:57;9.30;;;5.33;;
5391;SDS011;2719;53.624;9.786;2023-08-01T05:22:25;11.67;;;5.40;;
5391;SDS011;2719;53.624;9.786;2023-08-01T05:24:53;9.83;;;5.47;;
5391;SDS011;2719;53.624;9.786;2023-08-01T05:27:19;8.17;;;5.07;;
5391;SDS011;2719;53.624;9.786;2023-08-01T05:29:46;8.73;;;5.87;;
5391;SDS011;2719;53.624;9.786;2023-08-01T05:32:13;9.40;;;4.77;;
5391;SDS011;2719;53.624;9.786;2023-08-01T05:34:40;6.50;;;4.07;;
5391;SDS011;2719;53.624;9.786;2023-08-01T05:37:07;8.00;;;4.23;;
5391;SDS011;2719;53.624;9.786;2023-08-01T05:39:35;10.63;;;4.47;;
5391;SDS011;2719;53.624;9.786;2023-08-01T05:42:02;12.57;;;4.60;;
5391;SDS011;2719;53.624;9.786;2023-08-01T05:44:33;11.13;;;3.40;;
5391;SDS011;2719;53.624;9.786;2023-08-01T05:47:00;7.80;;;3.50;;
5391;SDS011;2719;53.624;9.786;2023-08-01T05:49:27;14.57;;;3.83;;
5391;SDS011;2719;53.624;9.786;2023-08-01T05:51:54;10.83;;;3.57;;
5391;SDS011;2719;53.624;9.786;2023-08-01T05:54:21;11.27;;;4.10;;
5391;SDS011;2719;53.624;9.786;2023-08-01T05:56:49;8.77;;;3.37;;
5391;SDS011;2719;53.624;9.786;2023-08-01T05:59:16;9.17;;;3.60;;
5391;SDS011;2719;53.624;9.786;2023-08-01T06:01:43;7.00;;;3.13;;
5391;SDS011;2719;53.624;9.786;2023-08-01T06:04:09;8.23;;;3.07;;
5391;SDS011;2719;53.624;9.786;2023-08-01T06:06:36;23.13;;;3.20;;
5391;SDS011;2719;53.624;9.786;2023-08-01T06:09:03;7.80;;;3.50;;
5391;SDS011;2719;53.624;9.786;2023-08-01T06:11:29;17.20;;;2.67;;
5391;SDS011;2719;53.624;9.786;2023-08-01T06:13:59;19.23;;;3.23;;
5391;SDS011;2719;53.624;9.786;2023-08-01T06:16:26;8.27;;;3.17;;
5391;SDS011;2719;53.624;9.786;2023-08-01T06:18:53;10.60;;;2.60;;
5391;SDS011;2719;53.624;9.786;2023-08-01T06:21:19;8.60;;;2.20;;
5391;SDS011;2719;53.624;9.786;2023-08-01T06:23:46;6.60;;;2.50;;
5391;SDS011;2719;53.624;9.786;2023-08-01T06:26:12;5.53;;;2.10;;
5391;SDS011;2719;53.624;9.786;2023-08-01T06:28:40;10.73;;;2.60;;
5391;SDS011;2719;53.624;9.786;2023-08-01T06:31:08;6.53;;;1.30;;
5391;SDS011;2719;53.624;9.786;2023-08-01T06:33:34;12.60;;;1.70;;
5391;SDS011;2719;53.624;9.786;2023-08-01T06:36:01;3.60;;;1.93;;
5391;SDS011;2719;53.624;9.786;2023-08-01T06:38:28;7.00;;;2.40;;
5391;SDS011;2719;53.624;9.786;2023-08-01T06:40:55;8.53;;;1.53;;
5391;SDS011;2719;53.624;9.786;2023-08-01T06:43:22;8.90;;;2.13;;
5391;SDS011;2719;53.624;9.786;2023-08-01T06:45:49;8.10;;;2.70;;
5391;SDS011;2719;53.624;9.786;2023-08-01T06:48:17;6.03;;;2.20;;
5391;SDS011;2719;53.624;9.786;2023-08-01T06:50:44;5.07;;;2.47;;
5391;SDS011;2719;53.624;9.786;2023-08-01T06:53:10;9.10;;;2.47;;
5391;SDS011;2719;53.624;9.786;2023-08-01T06:55:37;6.60;;;1.43;;
5391;SDS011;2719;53.624;9.786;2023-08-01T06:58:04;6.97;;;2.13;;
5391;SDS011;2719;53.624;9.786;2023-08-01T07:00:31;5.40;;;2.97;;
5391;SDS011;2719;53.624;9.786;2023-08-01T07:02:58;7.00;;;1.70;;
5391;SDS011;2719;53.624;9.786;2023-08-01T07:05:26;3.23;;;1.80;;
5391;SDS011;2719;53.624;9.786;2023-08-01T07:07:52;5.23;;;1.90;;
5391;SDS011;2719;53.624;9.786;2023-08-01T07:10:19;7.10;;;2.33;;
5391;SDS011;2719;53.624;9.786;2023-08-01T07:12:46;7.60;;;1.80;;
5391;SDS011;2719;53.624;9.786;2023-08-01T07:15:13;4.60;;;2.10;;
5391;SDS011;2719;53.624;9.786;2023-08-01T07:17:40;7.77;;;1.77;;
5391;SDS011;2719;53.624;9.786;2023-08-01T07:20:07;13.47;;;2.20;;
5391;SDS011;2719;53.624;9.786;2023-08-01T07:22:36;10.67;;;2.57;;
5391;SDS011;2719;53.624;9.786;2023-08-01T07:25:03;16.40;;;3.23;;
5391;SDS011;2719;53.624;9.786;2023-08-01T07:27:30;9.93;;;3.20;;
5391;SDS011;2719;53.624;9.786;2023-08-01T07:29:57;6.00;;;1.73;;
5391;SDS011;2719;53.624;9.786;2023-08-01T07:32:23;6.67;;;2.37;;
5391;SDS011;2719;53.624;9.786;2023-08-01T07:34:50;4.97;;;2.07;;
5391;SDS011;2719;53.624;9.786;2023-08-01T07:37:17;8.50;;;2.20;;
5391;SDS011;2719;53.624;9.786;2023-08-01T07:39:45;6.97;;;2.10;;
5391;SDS011;2719;53.624;9.786;2023-08-01T07:42:12;9.80;;;1.97;;
5391;SDS011;2719;53.624;9.786;2023-08-01T07:44:39;10.70;;;2.60;;
5391;SDS011;2719;53.624;9.786;2023-08-01T07:47:05;8.13;;;1.90;;
5391;SDS011;2719;53.624;9.786;2023-08-01T07:49:33;8.57;;;1.40;;
5391;SDS011;2719;53.624;9.786;2023-08-01T07:51:59;6.57;;;1.70;;
5391;SDS011;2719;53.624;9.786;2023-08-01T07:54:26;8.80;;;2.57;;
5391;SDS011;2719;53.624;9.786;2023-08-01T07:56:54;8.03;;;2.13;;
5391;SDS011;2719;53.624;9.786;2023-08-01T07:59:21;5.50;;;1.97;;
5391;SDS011;2719;53.624;9.786;2023-08-01T08:01:48;5.90;;;2.23;;
5391;SDS011;2719;53.624;9.786;2023-08-01T08:04:14;6.67;;;2.30;;
5391;SDS011;2719;53.624;9.786;2023-08-01T08:06:41;10.93;;;2.20;;
5391;SDS011;2719;53.624;9.786;2023-08-01T08:09:08;8.43;;;1.60;;
5391;SDS011;2719;53.624;9.786;2023-08-01T08:11:34;6.90;;;1.90;;
5391;SDS011;2719;53.624;9.786;2023-08-01T08:14:02;10.73;;;2.13;;
5391;SDS011;2719;53.624;9.786;2023-08-01T08:16:29;8.97;;;2.30;;
5391;SDS011;2719;53.624;9.786;2023-08-01T08:18:56;5.50;;;1.70;;
5391;SDS011;2719;53.624;9.786;2023-08-01T08:21:22;14.70;;;2.20;;
5391;SDS011;2719;53.624;9.786;2023-08-01T08:23:49;16.37;;;2.07;;
5391;SDS011;2719;53.624;9.786;2023-08-01T08:26:16;8.90;;;1.90;;
5391;SDS011;2719;53.624;9.786;2023-08-01T08:28:42;4.40;;;1.53;;
5391;SDS011;2719;53.624;9.786;2023-08-01T08:31:11;4.17;;;1.33;;
5391;SDS011;2719;53.624;9.786;2023-08-01T08:33:37;15.53;;;2.07;;
5391;SDS011;2719;53.624;9.786;2023-08-01T08:36:04;4.67;;;1.93;;
5391;SDS011;2719;53.624;9.786;2023-08-01T08:38:31;9.70;;;2.13;;
5391;SDS011;2719;53.624;9.786;2023-08-01T08:41:01;8.00;;;1.87;;
5391;SDS011;2719;53.624;9.786;2023-08-01T08:43:32;10.00;;;2.83;;
5391;SDS011;2719;53.624;9.786;2023-08-01T08:46:00;13.03;;;4.13;;
5391;SDS011;2719;53.624;9.786;2023-08-01T08:48:30;8.17;;;2.30;;
5391;SDS011;2719;53.624;9.786;2023-08-01T08:50:59;10.17;;;2.20;;
5391;SDS011;2719;53.624;9.786;2023-08-01T08:53:27;12.37;;;2.10;;
5391;SDS011;2719;53.624;9.786;2023-08-01T08:55:54;4.47;;;1.67;;
5391;SDS011;2719;53.624;9.786;2023-08-01T08:58:20;7.10;;;2.40;;
5391;SDS011;2719;53.624;9.786;2023-08-01T09:00:48;3.80;;;1.93;;
5391;SDS011;2719;53.624;9.786;2023-08-01T09:03:15;4.60;;;1.70;;
5391;SDS011;2719;53.624;9.786;2023-08-01T09:05:45;11.07;;;1.50;;
5391;SDS011;2719;53.624;9.786;2023-08-01T09:08:18;5.73;;;1.50;;
5391;SDS011;2719;53.624;9.786;2023-08-01T09:10:46;4.53;;;1.73;;
5391;SDS011;2719;53.624;9.786;2023-08-01T09:13:13;4.00;;;1.47;;
5391;SDS011;2719;53.624;9.786;2023-08-01T09:15:40;5.40;;;1.67;;
5391;SDS011;2719;53.624;9.786;2023-08-01T09:18:08;4.93;;;1.40;;
5391;SDS011;2719;53.624;9.786;2023-08-01T09:20:41;7.33;;;1.00;;
5391;SDS011;2719;53.624;9.786;2023-08-01T09:23:11;3.07;;;1.10;;
5391;SDS011;2719;53.624;9.786;2023-08-01T09:25:38;4.43;;;1.40;;
5391;SDS011;2719;53.624;9.786;2023-08-01T09:28:14;4.60;;;1.43;;
5391;SDS011;2719;53.624;9.786;2023-08-01T09:30:45;5.70;;;1.93;;
5391;SDS011;2719;53.624;9.786;2023-08-01T09:33:13;4.37;;;1.33;;
5391;SDS011;2719;53.624;9.786;2023-08-01T09:35:39;4.10;;;1.33;;
5391;SDS011;2719;53.624;9.786;2023-08-01T09:38:07;4.10;;;1.43;;
5391;SDS011;2719;53.624;9.786;2023-08-01T09:40:37;3.60;;;1.37;;
5391;SDS011;2719;53.624;9.786;2023-08-01T09:43:04;5.03;;;2.03;;
5391;SDS011;2719;53.624;9.786;2023-08-01T09:45:30;2.87;;;1.10;;
5391;SDS011;2719;53.624;9.786;2023-08-01T09:47:59;4.47;;;1.90;;
5391;SDS011;2719;53.624;9.786;2023-08-01T09:50:26;2.43;;;0.80;;
5391;SDS011;2719;53.624;9.786;2023-08-01T09:52:53;2.00;;;0.97;;
5391;SDS011;2719;53.624;9.786;2023-08-01T09:55:20;4.20;;;1.20;;
5391;SDS011;2719;53.624;9.786;2023-08-01T09:57:54;2.93;;;0.90;;
5391;SDS011;2719;53.624;9.786;2023-08-01T10:00:23;4.20;;;1.27;;
5391;SDS011;2719;53.624;9.786;2023-08-01T10:02:51;3.73;;;0.70;;
5391;SDS011;2719;53.624;9.786;2023-08-01T10:05:19;5.33;;;1.30;;
5391;SDS011;2719;53.624;9.786;2023-08-01T10:07:47;5.23;;;0.93;;
5391;SDS011;2719;53.624;9.786;2023-08-01T10:10:17;3.47;;;1.00;;
5391;SDS011;2719;53.624;9.786;2023-08-01T10:12:45;6.70;;;0.80;;
5391;SDS011;2719;53.624;9.786;2023-08-01T10:15:14;2.30;;;0.70;;
5391;SDS011;2719;53.624;9.786;2023-08-01T10:17:41;2.20;;;0.50;;
5391;SDS011;2719;53.624;9.786;2023-08-01T10:20:10;3.57;;;0.90;;
5391;SDS011;2719;53.624;9.786;2023-08-01T10:22:38;2.20;;;0.63;;
5391;SDS011;2719;53.624;9.786;2023-08-01T10:25:06;2.53;;;0.80;;
5391;SDS011;2719;53.624;9.786;2023-08-01T10:27:34;2.87;;;0.63;;
5391;SDS011;2719;53.624;9.786;2023-08-01T10:30:02;2.90;;;0.70;;
5391;SDS011;2719;53.624;9.786;2023-08-01T10:32:32;2.93;;;0.80;;
5391;SDS011;2719;53.624;9.786;2023-08-01T10:35:00;4.13;;;0.57;;
5391;SDS011;2719;53.624;9.786;2023-08-01T10:37:27;3.07;;;0.60;;
5391;SDS011;2719;53.624;9.786;2023-08-01T10:40:05;2.40;;;0.63;;
5391;SDS011;2719;53.624;9.786;2023-08-01T10:42:37;4.87;;;0.60;;
5391;SDS011;2719;53.624;9.786;2023-08-01T10:45:04;1.90;;;0.60;;
5391;SDS011;2719;53.624;9.786;2023-08-01T10:47:33;2.60;;;0.50;;
5391;SDS011;2719;53.624;9.786;2023-08-01T10:50:00;1.70;;;0.50;;
5391;SDS011;2719;53.624;9.786;2023-08-01T10:52:27;1.80;;;0.50;;
5391;SDS011;2719;53.624;9.786;2023-08-01T10:54:57;1.10;;;0.40;;
5391;SDS011;2719;53.624;9.786;2023-08-01T10:57:26;3.53;;;0.50;;
5391;SDS011;2719;53.624;9.786;2023-08-01T10:59:54;2.17;;;0.60;;
5391;SDS011;2719;53.624;9.786;2023-08-01T11:02:22;1.40;;;0.40;;
5391;SDS011;2719;53.624;9.786;2023-08-01T11:04:58;1.87;;;0.60;;
5391;SDS011;2719;53.624;9.786;2023-08-01T11:07:25;1.07;;;0.40;;
5391;SDS011;2719;53.624;9.786;2023-08-01T11:10:05;2.73;;;0.40;;
5391;SDS011;2719;53.624;9.786;2023-08-01T11:12:34;2.27;;;0.50;;
5391;SDS011;2719;53.624;9.786;2023-08-01T11:15:02;5.43;;;0.50;;
5391;SDS011;2719;53.624;9.786;2023-08-01T11:17:31;2.20;;;0.33;;
5391;SDS011;2719;53.624;9.786;2023-08-01T11:20:03;1.30;;;0.40;;
5391;SDS011;2719;53.624;9.786;2023-08-01T11:22:32;1.90;;;0.40;;
5391;SDS011;2719;53.624;9.786;2023-08-01T11:24:59;1.40;;;0.40;;
5391;SDS011;2719;53.624;9.786;2023-08-01T11:27:25;4.67;;;0.50;;
5391;SDS011;2719;53.624;9.786;2023-08-01T11:29:53;1.33;;;0.40;;
5391;SDS011;2719;53.624;9.786;2023-08-01T11:32:20;1.20;;;0.40;;
5391;SDS011;2719;53.624;9.786;2023-08-01T11:34:48;1.90;;;0.40;;
5391;SDS011;2719;53.624;9.786;2023-08-01T11:37:17;0.80;;;0.30;;
5391;SDS011;2719;53.624;9.786;2023-08-01T11:39:45;2.60;;;0.30;;
5391;SDS011;2719;53.624;9.786;2023-08-01T11:42:14;1.10;;;0.30;;
5391;SDS011;2719;53.624;9.786;2023-08-01T11:44:42;3.87;;;0.47;;
5391;SDS011;2719;53.624;9.786;2023-08-01T11:47:10;0.80;;;0.30;;
5391;SDS011;2719;53.624;9.786;2023-08-01T11:49:38;7.50;;;0.47;;
5391;SDS011;2719;53.624;9.786;2023-08-01T11:52:05;1.27;;;0.30;;
5391;SDS011;2719;53.624;9.786;2023-08-01T11:54:44;1.07;;;0.47;;
5391;SDS011;2719;53.624;9.786;2023-08-01T11:57:11;5.13;;;0.93;;
5391;SDS011;2719;53.624;9.786;2023-08-01T11:59:45;1.10;;;0.50;;
5391;SDS011;2719;53.624;9.786;2023-08-01T12:02:20;1.37;;;0.50;;
5391;SDS011;2719;53.624;9.786;2023-08-01T12:04:47;1.33;;;0.50;;
5391;SDS011;2719;53.624;9.786;2023-08-01T12:07:14;1.10;;;0.40;;
5391;SDS011;2719;53.624;9.786;2023-08-01T12:09:42;0.90;;;0.30;;
5391;SDS011;2719;53.624;9.786;2023-08-01T12:12:10;1.30;;;0.33;;
5391;SDS011;2719;53.624;9.786;2023-08-01T12:14:40;1.23;;;0.40;;
5391;SDS011;2719;53.624;9.786;2023-08-01T12:17:07;1.00;;;0.50;;
5391;SDS011;2719;53.624;9.786;2023-08-01T12:19:33;1.20;;;0.50;;
5391;SDS011;2719;53.624;9.786;2023-08-01T12:22:00;2.07;;;0.40;;
5391;SDS011;2719;53.624;9.786;2023-08-01T12:24:27;1.40;;;0.40;;
5391;SDS011;2719;53.624;9.786;2023-08-01T12:26:55;1.73;;;0.87;;
5391;SDS011;2719;53.624;9.786;2023-08-01T12:29:23;1.77;;;0.53;;
5391;SDS011;2719;53.624;9.786;2023-08-01T12:31:49;4.57;;;0.50;;
5391;SDS011;2719;53.624;9.786;2023-08-01T12:34:16;1.10;;;0.40;;
5391;SDS011;2719;53.624;9.786;2023-08-01T12:36:43;1.90;;;0.40;;
5391;SDS011;2719;53.624;9.786;2023-08-01T12:39:09;1.80;;;0.73;;
5391;SDS011;2719;53.624;9.786;2023-08-01T12:41:36;2.60;;;0.50;;
5391;SDS011;2719;53.624;9.786;2023-08-01T12:44:05;2.17;;;0.40;;
5391;SDS011;2719;53.624;9.786;2023-08-01T12:46:32;2.20;;;0.40;;
5391;SDS011;2719;53.624;9.786;2023-08-01T12:48:58;0.80;;;0.40;;
5391;SDS011;2719;53.624;9.786;2023-08-01T12:51:27;2.23;;;0.50;;
5391;SDS011;2719;53.624;9.786;2023-08-01T12:53:54;0.90;;;0.40;;
5391;SDS011;2719;53.624;9.786;2023-08-01T12:56:21;1.70;;;0.40;;
5391;SDS011;2719;53.624;9.786;2023-08-01T12:58:48;1.57;;;0.40;;
5391;SDS011;2719;53.624;9.786;2023-08-01T13:01:16;1.50;;;0.40;;
5391;SDS011;2719;53.624;9.786;2023-08-01T13:03:42;1.13;;;0.40;;
5391;SDS011;2719;53.624;9.786;2023-08-01T13:06:10;2.50;;;0.83;;
5391;SDS011;2719;53.624;9.786;2023-08-01T13:08:38;2.03;;;0.40;;
5391;SDS011;2719;53.624;9.786;2023-08-01T13:11:09;4.70;;;0.40;;
5391;SDS011;2719;53.624;9.786;2023-08-01T13:13:37;1.07;;;0.47;;
5391;SDS011;2719;53.624;9.786;2023-08-01T13:16:04;2.17;;;0.47;;
5391;SDS011;2719;53.624;9.786;2023-08-01T13:18:32;7.20;;;0.50;;
5391;SDS011;2719;53.624;9.786;2023-08-01T13:20:59;3.93;;;0.50;;
5391;SDS011;2719;53.624;9.786;2023-08-01T13:23:26;1.47;;;0.40;;
5391;SDS011;2719;53.624;9.786;2023-08-01T13:25:54;0.90;;;0.40;;
5391;SDS011;2719;53.624;9.786;2023-08-01T13:28:20;3.30;;;0.50;;
5391;SDS011;2719;53.624;9.786;2023-08-01T13:30:47;4.90;;;0.50;;
5391;SDS011;2719;53.624;9.786;2023-08-01T13:33:14;2.33;;;0.37;;
5391;SDS011;2719;53.624;9.786;2023-08-01T13:35:42;1.83;;;0.50;;
5391;SDS011;2719;53.624;9.786;2023-08-01T13:38:08;2.60;;;0.50;;
5391;SDS011;2719;53.624;9.786;2023-08-01T13:40:35;1.30;;;0.40;;
5391;SDS011;2719;53.624;9.786;2023-08-01T13:43:02;1.40;;;0.40;;
5391;SDS011;2719;53.624;9.786;2023-08-01T13:45:29;1.00;;;0.40;;
5391;SDS011;2719;53.624;9.786;2023-08-01T13:47:57;4.77;;;0.40;;
5391;SDS011;2719;53.624;9.786;2023-08-01T13:50:24;0.80;;;0.40;;
5391;SDS011;2719;53.624;9.786;2023-08-01T13:52:52;4.27;;;0.63;;
5391;SDS011;2719;53.624;9.786;2023-08-01T13:55:19;1.20;;;0.40;;
5391;SDS011;2719;53.624;9.786;2023-08-01T13:57:46;1.93;;;0.60;;
5391;SDS011;2719;53.624;9.786;2023-08-01T14:00:13;3.57;;;0.40;;
5391;SDS011;2719;53.624;9.786;2023-08-01T14:02:40;1.47;;;0.40;;
5391;SDS011;2719;53.624;9.786;2023-08-01T14:05:06;2.07;;;0.50;;
5391;SDS011;2719;53.624;9.786;2023-08-01T14:07:34;1.03;;;0.40;;
5391;SDS011;2719;53.624;9.786;2023-08-01T14:10:02;1.00;;;0.30;;
5391;SDS011;2719;53.624;9.786;2023-08-01T14:12:30;0.90;;;0.30;;
5391;SDS011;2719;53.624;9.786;2023-08-01T14:14:56;1.83;;;0.40;;
5391;SDS011;2719;53.624;9.786;2023-08-01T14:17:23;9.30;;;1.00;;
5391;SDS011;2719;53.624;9.786;2023-08-01T14:19:49;1.40;;;0.40;;
5391;SDS011;2719;53.624;9.786;2023-08-01T14:22:16;1.50;;;0.40;;
5391;SDS011;2719;53.624;9.786;2023-08-01T14:24:43;1.67;;;0.40;;
5391;SDS011;2719;53.624;9.786;2023-08-01T14:27:11;2.87;;;0.40;;
5391;SDS011;2719;53.624;9.786;2023-08-01T14:29:37;1.10;;;0.40;;
5391;SDS011;2719;53.624;9.786;2023-08-01T14:32:06;3.47;;;0.40;;
5391;SDS011;2719;53.624;9.786;2023-08-01T14:34:33;2.80;;;0.40;;
5391;SDS011;2719;53.624;9.786;2023-08-01T14:36:59;5.43;;;0.40;;
5391;SDS011;2719;53.624;9.786;2023-08-01T14:39:27;1.00;;;0.40;;
5391;SDS011;2719;53.624;9.786;2023-08-01T14:41:53;4.60;;;0.40;;
5391;SDS011;2719;53.624;9.786;2023-08-01T14:44:21;2.00;;;0.40;;
5391;SDS011;2719;53.624;9.786;2023-08-01T14:46:48;0.80;;;0.30;;
5391;SDS011;2719;53.624;9.786;2023-08-01T14:49:15;1.97;;;0.40;;
5391;SDS011;2719;53.624;9.786;2023-08-01T14:51:42;1.60;;;0.43;;
5391;SDS011;2719;53.624;9.786;2023-08-01T14:54:11;1.97;;;0.40;;
5391;SDS011;2719;53.624;9.786;2023-08-01T14:56:38;2.17;;;0.50;;
5391;SDS011;2719;53.624;9.786;2023-08-01T14:59:04;3.00;;;0.60;;
5391;SDS011;2719;53.624;9.786;2023-08-01T15:01:32;2.23;;;0.50;;
5391;SDS011;2719;53.624;9.786;2023-08-01T15:03:59;4.40;;;0.50;;
5391;SDS011;2719;53.624;9.786;2023-08-01T15:06:26;3.30;;;0.50;;
5391;SDS011;2719;53.624;9.786;2023-08-01T15:08:52;1.77;;;0.50;;
5391;SDS011;2719;53.624;9.786;2023-08-01T15:11:20;4.17;;;0.60;;
5391;SDS011;2719;53.624;9.786;2023-08-01T15:13:47;1.90;;;0.50;;